Time;durP1;ratioP1;P1;durP2;ratioP2;P2;SDS_P1;SDS_P2;PMS_P1;PMS_P2;Temp;Humidity;BMP_temperature;BMP_pressure;BME280_temperature;BME280_humidity;BME280_pressure;Samples;Min_cycle;Max_cycle;Signal;HPM_P1;HPM_P2
2023/12/15 00:00:51;;;;;;;58.40;21.05;;;;;;;7.52;100.00;102777.91;5203707;28;20472;-71
2023/12/15 00:03:21;;;;;;;52.30;19.80;;;;;;;7.71;100.00;102780.25;5203918;28;20041;-72
2023/12/15 00:05:52;;;;;;;59.05;19.80;;;;;;;7.57;100.00;102788.31;5203640;28;20030;-72
2023/12/15 00:08:22;;;;;;;54.90;19.92;;;;;;;7.76;100.00;102792.34;5203816;28;20503;-72
2023/12/15 00:10:53;;;;;;;56.63;19.85;;;;;;;7.56;100.00;102791.94;5203972;28;20037;-72
2023/12/15 00:13:24;;;;;;;55.75;21.08;;;;;;;7.57;100.00;102796.31;5203608;28;20439;-71
2023/12/15 00:15:54;;;;;;;70.43;21.75;;;;;;;7.60;100.00;102785.44;5203355;28;20018;-72
2023/12/15 00:18:25;;;;;;;62.22;22.15;;;;;;;7.59;100.00;102784.59;5213875;28;20385;-73
2023/12/15 00:20:55;;;;;;;58.00;22.70;;;;;;;7.59;100.00;102789.09;5213550;28;20474;-73
2023/12/15 00:23:26;;;;;;;67.28;21.75;;;;;;;7.62;100.00;102788.88;5209692;28;20032;-73
2023/12/15 00:25:56;;;;;;;59.97;21.77;;;;;;;7.64;100.00;102781.63;5208495;28;20028;-73
2023/12/15 00:28:27;;;;;;;57.42;21.65;;;;;;;7.67;100.00;102784.06;5216849;28;20047;-73
2023/12/15 00:30:57;;;;;;;62.35;23.20;;;;;;;7.66;100.00;102787.72;5211344;28;20024;-73
2023/12/15 00:33:28;;;;;;;68.95;23.25;;;;;;;7.62;100.00;102789.72;5207720;28;20455;-73
2023/12/15 00:35:59;;;;;;;61.47;22.85;;;;;;;7.65;100.00;102794.03;5206764;28;20021;-73
2023/12/15 00:38:29;;;;;;;65.53;22.27;;;;;;;7.60;100.00;102797.00;5210075;28;20105;-73
2023/12/15 00:41:00;;;;;;;70.82;23.33;;;;;;;7.70;100.00;102789.22;5209104;28;20477;-73
2023/12/15 00:43:30;;;;;;;64.22;22.60;;;;;;;7.69;100.00;102806.22;5216140;28;20032;-73
2023/12/15 00:46:01;;;;;;;63.85;22.92;;;;;;;7.75;100.00;102804.00;5215154;28;20075;-73
2023/12/15 00:48:31;;;;;;;76.00;23.98;;;;;;;7.77;100.00;102803.91;5212388;28;20087;-73
2023/12/15 00:51:02;;;;;;;58.78;23.92;;;;;;;7.79;100.00;102810.00;5206657;28;20029;-73
2023/12/15 00:53:33;;;;;;;67.22;24.73;;;;;;;7.82;100.00;102812.47;5214131;28;20029;-73
2023/12/15 00:56:03;;;;;;;74.20;24.30;;;;;;;7.80;100.00;102817.06;5212021;28;20459;-73
2023/12/15 00:58:34;;;;;;;62.45;23.92;;;;;;;7.86;100.00;102829.16;5205322;28;20021;-73
2023/12/15 01:01:06;;;;;;;67.45;24.15;;;;;;;7.83;100.00;102830.25;5204949;28;20025;-73
2023/12/15 01:03:37;;;;;;;76.50;25.25;;;;;;;7.86;100.00;102829.16;5210577;28;20037;-73
2023/12/15 01:06:08;;;;;;;71.25;24.23;;;;;;;7.87;100.00;102837.06;5214833;28;20025;-73
2023/12/15 01:08:38;;;;;;;75.90;25.75;;;;;;;7.92;100.00;102837.63;5210738;28;20048;-73
2023/12/15 01:11:09;;;;;;;73.78;24.67;;;;;;;7.91;100.00;102835.91;5209912;28;20384;-73
2023/12/15 01:13:39;;;;;;;68.68;25.45;;;;;;;7.90;100.00;102830.69;5209797;28;20362;-72
2023/12/15 01:16:10;;;;;;;73.13;25.40;;;;;;;7.87;100.00;102831.72;5214133;28;20025;-72
2023/12/15 01:18:40;;;;;;;78.82;27.58;;;;;;;7.86;100.00;102838.03;5212416;28;20039;-72
2023/12/15 01:21:11;;;;;;;72.30;24.92;;;;;;;7.92;100.00;102834.97;5209329;28;20035;-72
2023/12/15 01:23:41;;;;;;;87.90;28.45;;;;;;;7.92;100.00;102832.28;5214847;28;20055;-72
2023/12/15 01:26:12;;;;;;;84.05;26.90;;;;;;;7.85;100.00;102835.47;5206974;28;20025;-73
2023/12/15 01:28:42;;;;;;;69.20;25.98;;;;;;;7.94;100.00;102835.72;5213639;28;20033;-72
2023/12/15 01:31:13;;;;;;;79.85;26.05;;;;;;;7.93;100.00;102842.03;5212581;28;20076;-73
2023/12/15 01:33:44;;;;;;;84.63;27.02;;;;;;;7.88;100.00;102841.50;5213125;28;20024;-73
2023/12/15 01:36:16;;;;;;;67.68;25.85;;;;;;;7.91;100.00;102846.59;5210666;28;20071;-73
2023/12/15 01:38:46;;;;;;;73.40;26.38;;;;;;;7.91;100.00;102851.97;5216290;28;20025;-72
2023/12/15 01:41:17;;;;;;;80.43;26.10;;;;;;;7.90;100.00;102852.06;5212345;28;21079;-72
2023/12/15 01:43:47;;;;;;;78.78;26.92;;;;;;;7.92;100.00;102855.47;5215876;28;20029;-73
2023/12/15 01:46:18;;;;;;;79.05;28.02;;;;;;;8.00;100.00;102858.53;5208824;28;20488;-72
2023/12/15 01:48:49;;;;;;;73.13;27.30;;;;;;;8.25;100.00;102861.28;5217394;28;20078;-72
2023/12/15 01:51:19;;;;;;;84.60;27.85;;;;;;;8.30;100.00;102871.69;5208080;28;20017;-73
2023/12/15 01:53:50;;;;;;;77.32;28.70;;;;;;;8.37;100.00;102862.31;5213992;28;20403;-72
2023/12/15 01:56:20;;;;;;;72.20;25.83;;;;;;;8.11;100.00;102874.72;5212658;28;20005;-72
2023/12/15 01:58:51;;;;;;;74.43;27.33;;;;;;;8.11;100.00;102879.19;5211867;28;20075;-72
2023/12/15 02:01:21;;;;;;;74.60;25.98;;;;;;;8.09;100.00;102881.13;5214603;28;20020;-72
2023/12/15 02:03:52;;;;;;;67.35;25.27;;;;;;;8.09;100.00;102883.81;5214820;28;20025;-72
2023/12/15 02:06:30;;;;;;;83.65;26.65;;;;;;;8.07;100.00;102877.69;5212998;28;20164;-72
2023/12/15 02:09:01;;;;;;;70.50;26.77;;;;;;;8.12;100.00;102878.25;5213218;28;20130;-72
2023/12/15 02:11:32;;;;;;;66.45;26.05;;;;;;;8.10;100.00;102882.84;5217673;28;20026;-72
2023/12/15 02:14:02;;;;;;;71.30;26.77;;;;;;;8.17;100.00;102881.47;5210276;28;20035;-72
2023/12/15 02:16:35;;;;;;;75.20;25.63;;;;;;;8.11;100.00;102888.06;5213620;28;20062;-72
2023/12/15 02:19:06;;;;;;;79.25;28.30;;;;;;;8.22;100.00;102885.53;5216171;28;20029;-72
2023/12/15 02:21:36;;;;;;;77.85;27.05;;;;;;;8.19;100.00;102884.91;5216053;28;20148;-72
2023/12/15 02:24:07;;;;;;;83.03;28.23;;;;;;;8.16;100.00;102888.63;5217551;28;20479;-72
2023/12/15 02:26:38;;;;;;;81.43;27.77;;;;;;;8.14;100.00;102889.72;5208970;28;20164;-72
2023/12/15 02:29:08;;;;;;;70.95;25.30;;;;;;;8.13;100.00;102886.16;5211514;28;20025;-71
2023/12/15 02:31:38;;;;;;;78.55;28.60;;;;;;;8.15;100.00;102886.91;5213615;28;20017;-71
2023/12/15 02:34:09;;;;;;;76.03;27.70;;;;;;;8.16;100.00;102890.44;5215054;28;21036;-71
2023/12/15 02:36:39;;;;;;;73.90;26.70;;;;;;;8.18;100.00;102893.88;5215371;28;20049;-72
2023/12/15 02:39:10;;;;;;;81.25;26.88;;;;;;;8.15;100.00;102888.75;5213879;28;20030;-72
2023/12/15 02:41:44;;;;;;;82.50;28.45;;;;;;;8.17;100.00;102895.69;5210114;28;20029;-72
2023/12/15 02:44:14;;;;;;;72.07;26.77;;;;;;;8.17;100.00;102908.19;5215245;28;20079;-72
2023/12/15 02:46:45;;;;;;;65.93;26.42;;;;;;;8.15;100.00;102916.34;5211593;28;20449;-72
2023/12/15 02:49:18;;;;;;;73.50;26.10;;;;;;;8.19;100.00;102915.19;5212894;28;20029;-72
2023/12/15 02:51:48;;;;;;;78.15;26.80;;;;;;;8.21;100.00;102915.91;5216030;28;20129;-72
2023/12/15 02:54:19;;;;;;;76.18;27.67;;;;;;;8.45;100.00;102928.69;5212551;28;20125;-73
2023/12/15 02:56:50;;;;;;;69.53;25.90;;;;;;;8.29;100.00;102937.69;5216640;28;20017;-72
2023/12/15 02:59:20;;;;;;;67.13;25.80;;;;;;;8.47;100.00;102940.97;5207270;28;20022;-72
2023/12/15 03:01:51;;;;;;;75.57;26.30;;;;;;;8.61;100.00;102945.41;5216193;28;20104;-72
2023/12/15 03:04:22;;;;;;;73.97;25.98;;;;;;;8.61;100.00;102948.09;5217084;28;20058;-72
2023/12/15 03:07:00;;;;;;;76.70;25.35;;;;;;;8.63;100.00;102945.31;5210536;28;20029;-72
2023/12/15 03:09:31;;;;;;;75.50;28.60;;;;;;;8.65;100.00;102951.44;5211487;28;20021;-72
2023/12/15 03:12:02;;;;;;;72.93;26.50;;;;;;;8.67;100.00;102952.19;5214097;28;20545;-72
2023/12/15 03:14:32;;;;;;;69.55;26.27;;;;;;;8.66;100.00;102966.53;5208156;28;20026;-72
2023/12/15 03:17:04;;;;;;;74.93;26.20;;;;;;;8.69;100.00;102969.84;5212203;28;20484;-72
2023/12/15 03:19:34;;;;;;;88.90;27.60;;;;;;;8.72;100.00;102969.63;5210760;28;20462;-72
2023/12/15 03:22:05;;;;;;;66.93;25.45;;;;;;;8.69;100.00;102977.88;5212978;28;20064;-72
2023/12/15 03:24:36;;;;;;;72.90;26.17;;;;;;;8.72;100.00;102991.03;5212428;28;20032;-72
2023/12/15 03:27:06;;;;;;;78.00;27.75;;;;;;;8.74;100.00;102989.16;5214031;28;20460;-72
2023/12/15 03:29:37;;;;;;;66.68;25.20;;;;;;;8.74;100.00;102990.97;5212098;28;20022;-72
2023/12/15 03:32:07;;;;;;;73.65;25.30;;;;;;;8.75;100.00;103004.25;5213747;28;20025;-71
2023/12/15 03:34:38;;;;;;;73.95;26.02;;;;;;;8.78;100.00;103006.69;5212293;28;20171;-72
2023/12/15 03:37:08;;;;;;;78.32;27.20;;;;;;;8.78;100.00;103006.69;5211834;28;20438;-72
2023/12/15 03:39:39;;;;;;;73.82;25.27;;;;;;;8.79;100.00;103013.78;5213020;28;20037;-72
2023/12/15 03:42:11;;;;;;;65.18;26.67;;;;;;;8.57;100.00;103006.28;5208917;28;20048;-72
2023/12/15 03:44:42;;;;;;;71.28;25.45;;;;;;;8.71;100.00;103018.78;5216318;28;20549;-72
2023/12/15 03:47:12;;;;;;;84.15;26.48;;;;;;;8.69;100.00;103031.41;5206839;28;20041;-72
2023/12/15 03:49:43;;;;;;;72.18;26.75;;;;;;;8.73;100.00;103032.03;5212854;28;20033;-72
2023/12/15 03:52:13;;;;;;;68.40;27.42;;;;;;;8.73;100.00;103034.72;5212768;28;20049;-72
2023/12/15 03:54:44;;;;;;;75.65;25.92;;;;;;;8.75;100.00;103027.47;5212689;28;20020;-72
2023/12/15 03:57:14;;;;;;;83.30;27.55;;;;;;;8.65;100.00;103029.03;5209014;28;20028;-72
2023/12/15 03:59:45;;;;;;;79.63;27.85;;;;;;;8.66;100.00;103026.25;5213201;28;20021;-72
2023/12/15 04:02:15;;;;;;;79.75;28.15;;;;;;;8.73;100.00;103030.22;5214222;28;20017;-72
2023/12/15 04:04:46;;;;;;;85.13;29.20;;;;;;;8.76;100.00;103040.75;5210625;28;20017;-72
2023/12/15 04:07:16;;;;;;;79.18;28.85;;;;;;;8.77;100.00;103046.94;5211206;28;20076;-72
2023/12/15 04:09:47;;;;;;;82.75;29.70;;;;;;;8.78;100.00;103049.50;5214207;28;20237;-72
2023/12/15 04:12:17;;;;;;;79.45;28.80;;;;;;;8.77;100.00;103049.63;5210540;28;20025;-72
2023/12/15 04:14:48;;;;;;;84.10;28.08;;;;;;;8.77;100.00;103036.25;5212476;28;20025;-72
2023/12/15 04:17:18;;;;;;;76.28;27.40;;;;;;;8.75;100.00;103044.38;5209135;28;20021;-72
2023/12/15 04:19:49;;;;;;;78.50;28.63;;;;;;;8.75;100.00;103043.53;5209507;28;20040;-72
2023/12/15 04:22:22;;;;;;;91.63;29.92;;;;;;;8.55;100.00;103051.03;5208639;28;20040;-72
2023/12/15 04:24:52;;;;;;;100.30;30.73;;;;;;;8.49;100.00;103058.59;5209977;28;20055;-72
2023/12/15 04:27:23;;;;;;;84.03;28.13;;;;;;;8.51;100.00;103065.56;5210386;28;20057;-72
2023/12/15 04:29:53;;;;;;;95.50;29.98;;;;;;;8.49;100.00;103064.81;5210017;28;20104;-72
2023/12/15 04:32:24;;;;;;;84.55;30.42;;;;;;;8.67;100.00;103056.53;5210280;28;20053;-72
2023/12/15 04:34:54;;;;;;;94.30;28.52;;;;;;;8.72;100.00;103059.78;5208453;28;20029;-72
2023/12/15 04:37:24;;;;;;;98.35;30.15;;;;;;;8.52;100.00;103061.91;5206945;28;20028;-72
2023/12/15 04:39:55;;;;;;;92.40;30.45;;;;;;;8.41;100.00;103066.25;5210026;28;20036;-72
2023/12/15 04:42:27;;;;;;;97.00;30.83;;;;;;;8.40;100.00;103068.06;5207705;28;20413;-72
2023/12/15 04:44:58;;;;;;;98.35;28.77;;;;;;;8.40;100.00;103078.78;5210603;28;20033;-72
2023/12/15 04:47:28;;;;;;;98.55;32.40;;;;;;;8.41;100.00;103063.56;5207392;28;20017;-72
2023/12/15 04:49:59;;;;;;;90.05;29.98;;;;;;;8.49;100.00;103070.16;5209976;28;20099;-72
2023/12/15 04:52:29;;;;;;;105.43;32.70;;;;;;;8.44;100.00;103072.28;5201743;28;20431;-72
2023/12/15 04:55:00;;;;;;;109.22;32.60;;;;;;;8.48;100.00;103071.13;5207879;28;20099;-72
2023/12/15 04:57:30;;;;;;;100.50;31.77;;;;;;;8.51;100.00;103068.22;5210469;28;20353;-72
2023/12/15 05:00:01;;;;;;;101.75;30.73;;;;;;;8.51;100.00;103073.59;5207233;28;20021;-72
2023/12/15 05:02:31;;;;;;;114.30;33.90;;;;;;;8.48;100.00;103071.13;5215890;28;20507;-72
2023/12/15 05:05:02;;;;;;;117.63;33.90;;;;;;;8.77;100.00;103071.03;5214676;28;20033;-72
2023/12/15 05:07:32;;;;;;;100.72;33.25;;;;;;;8.53;100.00;103074.38;5211262;28;20151;-72
2023/12/15 05:10:03;;;;;;;98.47;31.95;;;;;;;8.57;100.00;103081.22;5215683;28;20487;-72
2023/12/15 05:12:35;;;;;;;118.30;34.10;;;;;;;8.57;100.00;103086.56;5215425;28;20025;-72
2023/12/15 05:15:06;;;;;;;117.82;34.08;;;;;;;8.52;100.00;103090.50;5212647;28;20067;-72
2023/12/15 05:17:37;;;;;;;104.25;32.72;;;;;;;8.54;100.00;103094.81;5215549;28;20447;-72
2023/12/15 05:20:08;;;;;;;101.10;32.72;;;;;;;8.55;100.00;103091.16;5214199;28;20025;-72
2023/12/15 05:22:38;;;;;;;105.80;35.05;;;;;;;8.53;100.00;103093.09;5212084;28;20025;-72
2023/12/15 05:25:09;;;;;;;107.20;33.05;;;;;;;8.58;100.00;103092.75;5210692;28;20021;-72
2023/12/15 05:27:39;;;;;;;123.57;35.72;;;;;;;8.55;100.00;103093.84;5217232;28;20033;-72
2023/12/15 05:30:11;;;;;;;122.43;33.15;;;;;;;8.56;100.00;103105.41;5212833;28;20052;-72
2023/12/15 05:32:42;;;;;;;117.72;36.55;;;;;;;8.51;100.00;103104.84;5215820;28;20032;-72
2023/12/15 05:35:13;;;;;;;99.97;30.73;;;;;;;8.54;100.00;103110.00;5207050;28;20029;-72
2023/12/15 05:37:43;;;;;;;99.30;31.80;;;;;;;8.54;100.00;103115.34;5213522;28;20017;-71
2023/12/15 05:40:14;;;;;;;113.35;33.10;;;;;;;8.54;100.00;103126.06;5211057;28;20017;-72
2023/12/15 05:42:45;;;;;;;118.07;35.28;;;;;;;8.53;100.00;103124.31;5216330;28;20048;-72
2023/12/15 05:45:15;;;;;;;112.95;32.83;;;;;;;8.51;100.00;103127.09;5212103;28;20464;-72
2023/12/15 05:47:48;;;;;;;112.07;32.05;;;;;;;8.52;100.00;103139.50;5215008;28;20443;-71
2023/12/15 05:50:19;;;;;;;115.53;32.47;;;;;;;8.51;100.00;103132.44;5215212;28;20033;-71
2023/12/15 05:52:49;;;;;;;109.88;33.88;;;;;;;8.47;100.00;103136.25;5211761;28;20036;-71
2023/12/15 05:55:20;;;;;;;116.70;33.05;;;;;;;8.50;100.00;103140.56;5210208;28;20485;-71
2023/12/15 05:57:50;;;;;;;104.43;32.78;;;;;;;8.45;100.00;103151.56;5214890;28;20031;-71
2023/12/15 06:00:21;;;;;;;115.78;33.92;;;;;;;8.43;100.00;103155.28;5208838;28;20017;-71
2023/12/15 06:02:51;;;;;;;125.47;33.70;;;;;;;8.42;100.00;103165.13;5216080;28;20029;-71
2023/12/15 06:05:22;;;;;;;111.38;33.47;;;;;;;8.41;100.00;103165.22;5213284;28;20121;-71
2023/12/15 06:07:52;;;;;;;111.72;32.30;;;;;;;8.40;100.00;103167.03;5206321;28;20476;-71
2023/12/15 06:10:22;;;;;;;125.55;33.80;;;;;;;8.37;100.00;103167.22;5209321;28;20025;-71
2023/12/15 06:12:53;;;;;;;116.57;32.83;;;;;;;8.35;100.00;103165.56;5210953;28;20025;-71
2023/12/15 06:15:24;;;;;;;97.68;30.90;;;;;;;8.31;100.00;103152.38;5209619;28;20040;-71
2023/12/15 06:17:54;;;;;;;110.43;33.50;;;;;;;8.26;100.00;103142.94;5216880;28;20104;-71
2023/12/15 06:20:25;;;;;;;122.68;31.90;;;;;;;8.21;100.00;103145.88;5210202;28;20504;-72
2023/12/15 06:22:56;;;;;;;131.10;35.85;;;;;;;8.16;100.00;103152.47;5213731;28;20021;-71
2023/12/15 06:25:27;;;;;;;103.07;32.38;;;;;;;8.13;100.00;103158.84;5209894;28;20043;-72
2023/12/15 06:27:58;;;;;;;114.50;32.95;;;;;;;8.15;100.00;103150.75;5213395;28;20030;-74
2023/12/15 06:30:28;;;;;;;116.47;34.95;;;;;;;8.12;100.00;103151.78;5207410;28;20495;-73
2023/12/15 06:32:58;;;;;;;130.45;35.00;;;;;;;8.10;100.00;103143.03;5210969;28;20040;-73
2023/12/15 06:35:29;;;;;;;113.50;31.55;;;;;;;8.04;100.00;103148.75;5214063;28;20078;-74
2023/12/15 06:38:00;;;;;;;125.72;35.55;;;;;;;8.06;100.00;103152.19;5209341;28;20023;-76
2023/12/15 06:40:31;;;;;;;124.30;35.85;;;;;;;8.04;100.00;103164.78;5209775;28;20025;-76
2023/12/15 06:43:01;;;;;;;125.32;33.20;;;;;;;8.03;100.00;103169.28;5212202;28;20499;-77
2023/12/15 06:45:32;;;;;;;117.15;33.97;;;;;;;7.98;100.00;103173.16;5211740;28;20116;-77
2023/12/15 06:48:03;;;;;;;124.60;34.88;;;;;;;7.96;100.00;103175.06;5211696;28;20102;-76
2023/12/15 06:50:34;;;;;;;134.32;34.72;;;;;;;7.96;100.00;103183.09;5212120;28;21641;-74
2023/12/15 06:53:04;;;;;;;116.38;34.50;;;;;;;7.91;100.00;103187.84;5213008;28;20027;-74
2023/12/15 06:55:35;;;;;;;125.82;33.97;;;;;;;7.89;100.00;103181.75;5206578;28;20111;-74
2023/12/15 06:58:06;;;;;;;132.68;34.08;;;;;;;7.85;100.00;103174.88;5198753;28;20030;-74
2023/12/15 07:00:37;;;;;;;124.13;34.17;;;;;;;7.85;100.00;103165.03;5207542;28;20023;-74
2023/12/15 07:03:11;;;;;;;135.55;36.17;;;;;;;7.80;100.00;103175.13;5211551;28;20040;-74
2023/12/15 07:05:42;;;;;;;127.38;34.78;;;;;;;7.78;100.00;103185.03;5208039;28;20044;-74
2023/12/15 07:08:12;;;;;;;124.85;34.28;;;;;;;7.76;100.00;103192.31;5208263;28;20068;-73
2023/12/15 07:10:43;;;;;;;141.48;37.75;;;;;;;7.74;100.00;103204.91;5210790;28;20521;-74
2023/12/15 07:13:13;;;;;;;151.93;37.63;;;;;;;7.69;100.00;103212.31;5210144;28;20037;-74
2023/12/15 07:15:44;;;;;;;148.63;36.03;;;;;;;7.68;100.00;103205.25;5207569;28;20017;-74
2023/12/15 07:18:14;;;;;;;171.80;34.53;;;;;;;7.63;100.00;103210.88;5210737;28;20021;-74
2023/12/15 07:20:45;;;;;;;149.77;36.35;;;;;;;7.59;100.00;103214.69;5208339;28;20028;-77
2023/12/15 07:23:15;;;;;;;128.02;36.25;;;;;;;7.60;100.00;103221.72;5210085;28;20052;-76
2023/12/15 07:25:46;;;;;;;158.60;37.85;;;;;;;7.61;100.00;103227.94;5207167;28;20032;-76
2023/12/15 07:28:16;;;;;;;155.02;38.25;;;;;;;7.58;100.00;103238.78;5210869;28;20045;-77
2023/12/15 07:30:47;;;;;;;142.18;35.28;;;;;;;7.58;100.00;103233.44;5214391;28;20021;-76
2023/12/15 07:33:18;;;;;;;150.13;38.97;;;;;;;7.61;100.00;103243.97;5211922;28;20112;-76
2023/12/15 07:35:48;;;;;;;134.00;34.78;;;;;;;7.63;100.00;103239.38;5214734;28;20025;-76
2023/12/15 07:38:19;;;;;;;137.50;35.78;;;;;;;7.59;100.00;103248.53;5207197;28;20036;-76
2023/12/15 07:40:54;;;;;;;145.57;35.40;;;;;;;7.66;100.00;103261.44;5211196;28;20539;-76
2023/12/15 07:43:24;;;;;;;156.75;37.60;;;;;;;7.70;100.00;103254.97;5192086;28;20036;-76
2023/12/15 07:45:55;;;;;;;172.95;41.42;;;;;;;7.75;100.00;103246.69;5208915;28;20025;-74
2023/12/15 07:48:26;;;;;;;145.95;37.05;;;;;;;7.71;100.00;103235.31;5210378;28;20473;-73
2023/12/15 07:50:57;;;;;;;149.82;38.40;;;;;;;7.77;100.00;103237.63;5206560;28;20036;-73
2023/12/15 07:53:28;;;;;;;173.05;41.72;;;;;;;7.78;100.00;103239.38;5209287;28;20488;-73
2023/12/15 07:55:58;;;;;;;141.57;37.45;;;;;;;7.85;100.00;103237.19;5208953;28;20035;-73
2023/12/15 07:58:29;;;;;;;154.27;38.38;;;;;;;7.90;100.00;103244.94;5208018;28;20028;-73
2023/12/15 08:00:59;;;;;;;144.20;38.65;;;;;;;7.90;100.00;103250.28;5207820;28;20036;-73
2023/12/15 08:03:30;;;;;;;133.38;34.05;;;;;;;7.94;100.00;103252.69;5208495;28;20033;-73
2023/12/15 08:06:00;;;;;;;137.48;36.78;;;;;;;8.02;100.00;103266.44;5206262;28;20021;-72
2023/12/15 08:08:31;;;;;;;154.10;43.05;;;;;;;8.11;100.00;103274.88;5207390;28;20393;-73
2023/12/15 08:11:01;;;;;;;149.02;42.83;;;;;;;8.13;100.00;103278.31;5207247;28;20106;-73
2023/12/15 08:13:32;;;;;;;147.75;40.40;;;;;;;8.17;100.00;103283.38;5205060;28;20116;-73
2023/12/15 08:16:04;;;;;;;117.65;35.17;;;;;;;8.16;100.00;103286.16;5207751;28;20040;-73
2023/12/15 08:18:34;;;;;;;140.00;38.00;;;;;;;8.15;100.00;103287.97;5210002;28;20048;-73
2023/12/15 08:21:05;;;;;;;147.77;37.97;;;;;;;8.19;100.00;103283.31;5206597;28;20067;-73
2023/12/15 08:23:36;;;;;;;133.93;39.80;;;;;;;8.19;100.00;103284.19;5208303;28;20021;-73
2023/12/15 08:26:07;;;;;;;142.23;40.42;;;;;;;8.17;100.00;103293.22;5207863;28;20031;-73
2023/12/15 08:28:37;;;;;;;148.70;46.53;;;;;;;8.18;100.00;103301.19;5208352;28;20057;-73
2023/12/15 08:31:08;;;;;;;169.75;51.67;;;;;;;8.19;100.00;103300.22;5209262;28;20016;-72
2023/12/15 08:33:38;;;;;;;152.73;52.25;;;;;;;8.20;100.00;103315.31;5205797;28;20036;-72
2023/12/15 08:36:09;;;;;;;173.77;50.22;;;;;;;8.21;100.00;103318.84;5206921;28;20017;-72
2023/12/15 08:38:41;;;;;;;147.25;47.30;;;;;;;8.26;100.00;103328.31;5209760;28;20041;-72
2023/12/15 08:41:11;;;;;;;154.07;47.72;;;;;;;8.29;100.00;103333.50;5205178;28;20021;-73
2023/12/15 08:43:42;;;;;;;139.32;46.67;;;;;;;8.31;100.00;103339.59;5210414;28;20526;-72
2023/12/15 08:46:12;;;;;;;115.03;38.05;;;;;;;8.32;100.00;103346.66;5204549;28;20056;-72
2023/12/15 08:48:43;;;;;;;123.47;36.38;;;;;;;8.37;100.00;103351.78;5209660;28;20040;-72
2023/12/15 08:51:13;;;;;;;127.70;37.22;;;;;;;8.43;100.00;103354.09;5200056;28;20572;-72
2023/12/15 08:53:44;;;;;;;119.63;35.75;;;;;;;8.43;100.00;103363.91;5201137;28;20053;-72
2023/12/15 08:56:14;;;;;;;120.15;33.25;;;;;;;8.45;100.00;103364.72;5201726;28;20025;-72
2023/12/15 08:58:45;;;;;;;113.47;35.30;;;;;;;8.48;100.00;103369.84;5203337;28;20911;-71
2023/12/15 09:01:15;;;;;;;107.63;34.13;;;;;;;8.49;100.00;103369.78;5205496;28;20033;-72
2023/12/15 09:03:46;;;;;;;122.30;33.92;;;;;;;8.45;100.00;103376.28;5200095;28;20037;-72
2023/12/15 09:06:17;;;;;;;106.32;33.15;;;;;;;8.49;100.00;103380.50;5205449;28;20034;-71
2023/12/15 09:08:47;;;;;;;96.78;31.55;;;;;;;8.51;100.00;103383.94;5205125;28;20025;-72
2023/12/15 09:11:18;;;;;;;107.82;34.63;;;;;;;8.55;100.00;103384.63;5205478;28;20112;-72
2023/12/15 09:13:48;;;;;;;94.20;29.58;;;;;;;8.52;100.00;103376.75;5205886;28;20029;-72
2023/12/15 09:16:19;;;;;;;95.97;28.85;;;;;;;8.52;100.00;103374.09;5204008;28;20081;-72
2023/12/15 09:18:50;;;;;;;99.45;27.33;;;;;;;8.85;100.00;103376.56;5208796;28;20017;-72
2023/12/15 09:21:20;;;;;;;101.53;28.52;;;;;;;9.00;100.00;103398.84;5203401;28;20029;-73
2023/12/15 09:23:56;;;;;;;92.25;27.95;;;;;;;9.04;100.00;103397.72;5199435;28;20620;-73
2023/12/15 09:26:26;;;;;;;94.65;28.70;;;;;;;9.05;100.00;103399.44;5201129;28;20034;-71
2023/12/15 09:28:57;;;;;;;99.40;27.35;;;;;;;9.07;100.00;103409.06;5207150;28;20029;-74
2023/12/15 09:31:27;;;;;;;83.93;28.48;;;;;;;8.88;100.00;103405.78;5204488;28;20021;-72
2023/12/15 09:33:58;;;;;;;89.15;25.83;;;;;;;8.81;100.00;103405.31;5201391;28;20021;-72
2023/12/15 09:36:29;;;;;;;80.88;26.05;;;;;;;8.76;100.00;103412.75;5201140;28;20469;-72
2023/12/15 09:39:01;;;;;;;79.97;26.38;;;;;;;8.79;100.00;103414.41;5198540;28;20104;-72
2023/12/15 09:41:32;;;;;;;74.13;24.38;;;;;;;8.86;100.00;103420.25;5197956;28;20017;-72
2023/12/15 09:44:02;;;;;;;87.13;26.70;;;;;;;8.94;100.00;103417.97;5194349;28;20116;-72
2023/12/15 09:46:35;;;;;;;82.20;26.92;;;;;;;9.03;100.00;103425.44;5196755;28;20083;-72
2023/12/15 09:49:06;;;;;;;75.38;26.50;;;;;;;9.07;100.00;103430.50;5200541;28;20439;-71
2023/12/15 09:51:38;;;;;;;74.70;25.80;;;;;;;9.13;100.00;103434.63;5203836;28;20029;-71
2023/12/15 09:54:09;;;;;;;77.40;27.52;;;;;;;9.24;100.00;103439.34;5199414;28;20352;-71
2023/12/15 09:56:40;;;;;;;67.93;23.98;;;;;;;9.59;100.00;103443.38;5201074;28;20045;-71
2023/12/15 09:59:11;;;;;;;80.40;29.15;;;;;;;9.46;100.00;103445.06;5200694;28;20087;-71
2023/12/15 10:01:42;;;;;;;87.20;34.35;;;;;;;9.42;100.00;103454.25;5205713;28;20029;-71
2023/12/15 10:04:12;;;;;;;82.22;37.58;;;;;;;9.49;100.00;103469.03;5206074;28;20045;-71
2023/12/15 10:06:44;;;;;;;100.70;40.75;;;;;;;9.51;100.00;103479.63;5202213;28;20025;-74
2023/12/15 10:09:15;;;;;;;83.10;34.85;;;;;;;9.54;100.00;103474.09;5201628;28;20029;-71
2023/12/15 10:11:46;;;;;;;66.60;26.02;;;;;;;9.56;100.00;103482.88;5201336;28;20088;-71
2023/12/15 10:14:19;;;;;;;63.97;24.77;;;;;;;9.53;100.00;103478.56;5205553;28;20255;-74
2023/12/15 10:16:50;;;;;;;82.10;37.70;;;;;;;9.51;100.00;103491.22;5199325;28;20515;-71
2023/12/15 10:19:23;;;;;;;70.43;31.05;;;;;;;9.47;100.00;103489.66;5197796;28;20373;-71
2023/12/15 10:21:55;;;;;;;56.95;22.30;;;;;;;9.45;100.00;103499.63;5205670;28;20025;-72
2023/12/15 10:24:25;;;;;;;51.58;20.48;;;;;;;9.39;100.00;103501.81;5197202;28;20113;-72
2023/12/15 10:26:56;;;;;;;60.28;19.95;;;;;;;9.37;100.00;103507.28;5201048;28;20017;-72
2023/12/15 10:29:26;;;;;;;57.63;18.88;;;;;;;9.40;100.00;103512.44;5201207;28;20030;-72
2023/12/15 10:31:58;;;;;;;50.60;16.85;;;;;;;9.48;100.00;103511.97;5205493;28;20096;-74
2023/12/15 10:34:28;;;;;;;47.13;16.27;;;;;;;9.53;100.00;103525.94;5200592;28;20436;-70
2023/12/15 10:37:00;;;;;;;48.20;16.77;;;;;;;9.56;100.00;103537.34;5201929;28;20021;-70
2023/12/15 10:39:30;;;;;;;55.55;17.27;;;;;;;9.63;100.00;103545.88;5200353;28;20033;-70
2023/12/15 10:42:03;;;;;;;46.15;14.52;;;;;;;9.70;100.00;103555.28;5201849;28;20021;-70
2023/12/15 10:44:35;;;;;;;37.63;14.52;;;;;;;9.76;100.00;103552.19;5200391;28;20033;-70
2023/12/15 10:47:07;;;;;;;42.08;13.85;;;;;;;9.79;100.00;103559.22;5198097;28;20036;-69
2023/12/15 10:49:39;;;;;;;29.92;11.48;;;;;;;9.86;100.00;103557.84;5201234;28;20024;-71
2023/12/15 10:52:10;;;;;;;26.90;9.82;;;;;;;9.90;100.00;103555.84;5205264;28;20525;-71
2023/12/15 10:54:42;;;;;;;35.30;9.95;;;;;;;9.93;100.00;103553.81;5201012;28;20104;-71
2023/12/15 10:57:13;;;;;;;33.47;9.98;;;;;;;9.98;100.00;103558.91;5201080;28;20087;-70
2023/12/15 10:59:45;;;;;;;32.33;11.10;;;;;;;10.01;100.00;103556.91;5197301;28;20351;-71
2023/12/15 11:02:19;;;;;;;29.90;13.10;;;;;;;10.01;100.00;103566.75;5203256;28;20036;-70
2023/12/15 11:04:51;;;;;;;57.85;30.15;;;;;;;10.00;100.00;103579.31;5198351;28;20100;-70
2023/12/15 11:07:24;;;;;;;31.40;11.05;;;;;;;10.07;100.00;103582.47;5200573;28;20025;-71
2023/12/15 11:09:57;;;;;;;20.85;7.43;;;;;;;10.05;100.00;103581.72;5204568;28;20029;-71
2023/12/15 11:12:30;;;;;;;31.05;8.85;;;;;;;10.04;100.00;103582.66;5201845;28;20056;-71
2023/12/15 11:15:08;;;;;;;36.70;10.95;;;;;;;10.00;100.00;103582.00;5198256;28;20037;-71
2023/12/15 11:17:43;;;;;;;29.33;7.70;;;;;;;10.00;100.00;103586.50;5201781;28;20096;-71
2023/12/15 11:20:20;;;;;;;30.03;8.17;;;;;;;10.02;100.00;103584.56;5201202;28;20064;-71
2023/12/15 11:22:50;;;;;;;32.33;7.78;;;;;;;10.00;100.00;103597.22;5198556;28;20030;-73